Time;durP1;ratioP1;P1;durP2;ratioP2;P2;SDS_P1;SDS_P2;PMS_P1;PMS_P2;Temp;Humidity;BMP_temperature;BMP_pressure;BME280_temperature;BME280_humidity;BME280_pressure;Samples;Min_cycle;Max_cycle;Signal;HPM_P1;HPM_P2
2021/07/12 00:02:41;;;;;;;10.80;3.08;;;;;;;24.76;54.16;100455.22;4960587;28;20047;-77
2021/07/12 00:05:26;;;;;;;6.75;3.00;;;;;;;24.69;54.06;100453.31;4958116;28;20046;-78
2021/07/12 00:08:11;;;;;;;12.00;3.95;;;;;;;24.62;53.97;100445.88;4962929;28;20046;-77
2021/07/12 00:10:56;;;;;;;10.32;3.30;;;;;;;24.68;54.02;100444.22;4973633;28;20050;-77
2021/07/12 00:13:42;;;;;;;9.85;3.35;;;;;;;24.63;54.27;100447.47;4973646;28;20050;-79
2021/07/12 00:16:27;;;;;;;10.88;3.55;;;;;;;24.62;53.94;100445.88;4974774;28;20049;-77
2021/07/12 00:19:11;;;;;;;8.15;2.90;;;;;;;24.59;53.81;100446.69;4977727;28;20409;-78
2021/07/12 00:21:56;;;;;;;17.45;3.22;;;;;;;24.56;53.71;100436.41;4976902;28;20050;-77
2021/07/12 00:24:40;;;;;;;5.53;2.33;;;;;;;24.55;53.88;100436.81;4976205;28;20058;-78
2021/07/12 00:27:25;;;;;;;4.18;2.80;;;;;;;24.51;53.71;100434.09;4973789;28;20057;-78
2021/07/12 00:30:18;;;;;;;4.00;1.95;;;;;;;24.61;53.83;100437.94;4976830;28;20515;-78
2021/07/12 00:33:02;;;;;;;4.78;2.35;;;;;;;24.52;53.99;100432.91;4974807;28;20527;-77
2021/07/12 00:35:47;;;;;;;5.63;2.22;;;;;;;24.55;53.85;100432.06;4972952;28;20083;-78
2021/07/12 00:38:32;;;;;;;5.75;2.35;;;;;;;24.53;53.96;100434.44;4971466;28;20045;-77
2021/07/12 00:41:17;;;;;;;4.53;1.85;;;;;;;24.51;53.91;100433.31;4974931;28;20054;-77
2021/07/12 00:44:04;;;;;;;2.55;1.77;;;;;;;24.46;53.40;100434.56;4973524;28;20057;-77
2021/07/12 00:46:49;;;;;;;5.20;2.35;;;;;;;24.42;53.66;100436.59;4974080;28;20054;-77
2021/07/12 00:49:37;;;;;;;4.20;2.03;;;;;;;24.35;53.59;100431.13;4974021;28;20045;-77
2021/07/12 00:52:22;;;;;;;3.47;2.03;;;;;;;24.27;53.81;100447.09;4973626;28;20057;-77
2021/07/12 00:55:15;;;;;;;4.80;1.90;;;;;;;24.39;53.22;100450.53;4976532;28;20070;-78
2021/07/12 00:58:01;;;;;;;2.15;1.73;;;;;;;24.29;53.45;100443.88;4975054;28;20527;-78
2021/07/12 01:00:50;;;;;;;7.65;2.15;;;;;;;24.36;53.02;100445.81;4970325;28;20532;-77
2021/07/12 01:03:35;;;;;;;2.78;1.58;;;;;;;24.28;53.22;100442.31;4975893;28;20053;-77
2021/07/12 01:06:23;;;;;;;2.88;1.42;;;;;;;24.28;53.48;100445.88;4972524;28;20564;-77
2021/07/12 01:09:08;;;;;;;4.88;2.17;;;;;;;23.54;54.59;100457.72;4971127;28;20061;-77
2021/07/12 01:12:19;;;;;;;9.43;2.58;;;;;;;22.54;59.26;100448.41;4975776;28;20050;-76
2021/07/12 01:15:11;;;;;;;6.78;2.20;;;;;;;22.62;58.51;100463.78;4972084;28;20045;-77
2021/07/12 01:18:41;;;;;;;5.65;2.53;;;;;;;22.41;59.80;100469.41;4976687;28;20058;-77
2021/07/12 01:22:03;;;;;;;5.32;2.10;;;;;;;22.48;59.37;100466.63;4974446;28;20055;-77
2021/07/12 01:25:19;;;;;;;5.70;2.70;;;;;;;22.34;59.99;100470.25;4975384;28;20050;-77
2021/07/12 01:28:22;;;;;;;3.97;2.53;;;;;;;22.01;61.58;100467.94;4978313;28;20516;-77
2021/07/12 01:31:26;;;;;;;5.53;2.90;;;;;;;21.80;62.31;100465.97;4975652;28;20045;-79
2021/07/12 01:34:32;;;;;;;4.72;2.92;;;;;;;21.90;62.32;100469.91;4971457;28;20097;-78
2021/07/12 01:37:36;;;;;;;3.63;2.08;;;;;;;22.53;61.19;100475.31;4973651;28;20808;-77
2021/07/12 01:40:57;;;;;;;7.13;1.98;;;;;;;23.49;58.50;100469.25;4970830;28;20054;-77
2021/07/12 01:43:54;;;;;;;4.38;2.78;;;;;;;23.41;57.51;100473.28;4973572;28;20053;-79
2021/07/12 01:46:51;;;;;;;7.05;3.50;;;;;;;23.79;57.17;100480.50;4971539;28;20524;-77
2021/07/12 01:49:55;;;;;;;3.47;2.30;;;;;;;24.14;56.31;100481.34;4975635;28;20046;-77
2021/07/12 01:52:55;;;;;;;2.97;2.10;;;;;;;23.78;56.92;100484.47;4972346;28;20050;-77
2021/07/12 01:55:45;;;;;;;3.35;1.98;;;;;;;24.20;56.05;100488.06;4974260;28;20140;-78
2021/07/12 01:58:40;;;;;;;4.78;2.67;;;;;;;24.34;55.48;100485.13;4973296;28;20058;-77
2021/07/12 02:01:28;;;;;;;3.92;2.53;;;;;;;24.46;55.27;100481.03;4975822;28;20440;-78
2021/07/12 02:04:19;;;;;;;7.75;2.53;;;;;;;24.53;54.99;100486.50;4974255;28;20042;-77
2021/07/12 02:07:05;;;;;;;4.13;2.70;;;;;;;24.59;55.07;100488.41;4972291;28;20512;-79
2021/07/12 02:09:58;;;;;;;5.80;3.38;;;;;;;24.61;54.78;100499.13;4975962;28;20046;-78
2021/07/12 02:12:43;;;;;;;5.40;3.15;;;;;;;24.51;55.25;100494.47;4974492;28;20069;-78
2021/07/12 02:15:30;;;;;;;8.52;3.80;;;;;;;24.62;55.11;100493.16;4973018;28;20055;-77
2021/07/12 02:18:24;;;;;;;5.57;3.05;;;;;;;24.71;54.87;100503.75;4976892;28;20416;-79
2021/07/12 02:21:15;;;;;;;9.38;4.03;;;;;;;24.61;54.94;100502.69;4972838;28;20058;-79
2021/07/12 02:24:06;;;;;;;6.68;3.53;;;;;;;24.07;56.18;100492.56;4971474;28;20049;-78
2021/07/12 02:26:53;;;;;;;5.00;3.30;;;;;;;23.83;57.10;100499.91;4973615;28;20058;-78
2021/07/12 02:29:39;;;;;;;5.13;3.35;;;;;;;24.37;56.08;100503.78;4978651;28;20046;-78
2021/07/12 02:32:27;;;;;;;11.88;4.05;;;;;;;24.57;55.28;100506.72;4971959;28;20049;-78
2021/07/12 02:35:15;;;;;;;5.30;3.70;;;;;;;24.59;55.17;100504.28;4978226;28;20413;-79
2021/07/12 02:38:04;;;;;;;7.30;4.60;;;;;;;24.39;55.61;100506.91;4976621;28;20077;-79
2021/07/12 02:40:50;;;;;;;6.75;4.68;;;;;;;24.19;55.57;100505.94;4974432;28;20053;-78
2021/07/12 02:43:38;;;;;;;5.18;3.85;;;;;;;23.96;57.03;100511.31;4979855;28;20516;-78
2021/07/12 02:46:25;;;;;;;6.20;4.15;;;;;;;24.12;56.52;100503.22;4976989;28;20061;-77
2021/07/12 02:49:12;;;;;;;5.68;3.90;;;;;;;24.06;56.38;100507.63;4981272;28;20057;-77
2021/07/12 02:52:00;;;;;;;8.45;4.80;;;;;;;24.00;56.89;100498.16;4977959;28;20101;-78
2021/07/12 02:54:47;;;;;;;7.47;5.28;;;;;;;24.17;56.39;100506.38;4956346;28;20055;-77
2021/07/12 02:57:33;;;;;;;8.18;4.70;;;;;;;24.23;55.87;100509.47;4956655;28;20058;-79
2021/07/12 03:00:21;;;;;;;10.27;4.10;;;;;;;24.18;55.82;100507.13;4963320;28;20050;-77
2021/07/12 03:03:06;;;;;;;7.38;4.65;;;;;;;24.19;55.41;100511.50;4975182;28;20069;-78
2021/07/12 03:05:58;;;;;;;6.88;4.63;;;;;;;24.19;55.49;100511.50;4974591;28;20066;-78
2021/07/12 03:09:03;;;;;;;5.97;4.30;;;;;;;24.15;55.67;100510.72;4977783;28;20417;-77
2021/07/12 03:11:56;;;;;;;9.73;4.90;;;;;;;24.17;55.40;100514.72;4975001;28;20050;-77
2021/07/12 03:14:58;;;;;;;9.63;5.10;;;;;;;24.07;56.11;100512.00;4979243;28;20045;-77
2021/07/12 03:17:54;;;;;;;11.70;4.85;;;;;;;24.04;55.72;100504.47;4974385;28;20049;-78
2021/07/12 03:20:43;;;;;;;10.43;4.95;;;;;;;24.00;55.91;100507.28;4978798;28;20053;-79
2021/07/12 03:23:34;;;;;;;14.35;4.80;;;;;;;24.00;55.95;100503.72;4977847;28;20516;-79
2021/07/12 03:26:24;;;;;;;10.30;4.22;;;;;;;23.87;56.35;100504.22;4954333;28;20066;-78
2021/07/12 03:29:12;;;;;;;9.82;4.53;;;;;;;23.94;55.90;100499.81;4960401;28;20069;-79
2021/07/12 03:31:59;;;;;;;11.27;4.68;;;;;;;23.88;56.19;100503.03;4965830;28;20524;-77
2021/07/12 03:34:44;;;;;;;11.50;4.65;;;;;;;23.87;56.46;100509.00;4974680;28;20046;-78
2021/07/12 03:37:30;;;;;;;9.75;4.85;;;;;;;23.85;56.24;100509.41;4974912;28;20053;-79
2021/07/12 03:40:15;;;;;;;8.73;4.35;;;;;;;23.80;56.58;100498.75;4974635;28;20054;-78
2021/07/12 03:43:02;;;;;;;9.93;4.47;;;;;;;23.80;56.09;100501.53;4976380;28;20050;-78
2021/07/12 03:45:56;;;;;;;9.02;3.83;;;;;;;23.77;56.21;100496.00;4973524;28;20050;-78
2021/07/12 03:48:46;;;;;;;18.52;3.78;;;;;;;23.78;56.48;100486.47;4975845;28;20050;-78
2021/07/12 03:51:35;;;;;;;7.38;3.72;;;;;;;23.72;56.18;100488.13;4977860;28;20058;-78
2021/07/12 03:54:23;;;;;;;5.20;3.50;;;;;;;23.71;56.14;100489.31;4976871;28;20049;-78
2021/07/12 03:57:08;;;;;;;7.70;3.42;;;;;;;23.69;55.84;100500.03;4975831;28;20061;-78
2021/07/12 03:59:53;;;;;;;6.47;3.42;;;;;;;23.71;55.81;100511.53;4979247;28;20409;-77
2021/07/12 04:02:38;;;;;;;3.97;2.80;;;;;;;23.85;55.35;100514.19;4975901;28;20060;-77
2021/07/12 04:05:27;;;;;;;7.47;2.40;;;;;;;23.91;54.76;100514.53;4973915;28;20053;-78
2021/07/12 04:08:12;;;;;;;5.28;2.05;;;;;;;23.99;54.15;100513.25;4979336;28;20408;-77
2021/07/12 04:10:57;;;;;;;6.28;1.95;;;;;;;24.03;53.31;100519.56;4972249;28;20062;-77
2021/07/12 04:13:43;;;;;;;2.15;1.27;;;;;;;24.05;53.31;100525.50;4961726;28;20420;-78
2021/07/12 04:16:28;;;;;;;2.80;1.60;;;;;;;24.11;52.96;100521.09;4958420;28;20412;-77
2021/07/12 04:19:13;;;;;;;3.30;1.23;;;;;;;24.09;52.40;100527.03;4974996;28;20062;-78
2021/07/12 04:21:57;;;;;;;4.13;1.70;;;;;;;24.14;52.21;100534.16;4979408;28;20046;-78
2021/07/12 04:24:42;;;;;;;3.08;1.38;;;;;;;24.18;52.29;100543.25;4979827;28;20712;-78
2021/07/12 04:27:27;;;;;;;5.30;1.50;;;;;;;24.20;52.17;100538.88;4975750;28;20119;-77
2021/07/12 04:30:13;;;;;;;1.83;1.33;;;;;;;24.25;51.90;100543.19;4960464;28;20046;-78
2021/07/12 04:32:58;;;;;;;1.98;1.40;;;;;;;24.28;52.00;100548.72;4972295;28;20045;-77
2021/07/12 04:35:43;;;;;;;5.93;1.48;;;;;;;24.31;51.50;100540.75;4975441;28;20543;-78
2021/07/12 04:38:28;;;;;;;3.13;1.30;;;;;;;24.31;51.49;100541.56;4980682;28;20042;-78
2021/07/12 04:41:13;;;;;;;1.85;1.42;;;;;;;24.35;51.67;100535.94;4964376;28;20049;-79
2021/07/12 04:43:57;;;;;;;6.90;1.90;;;;;;;24.37;51.88;100517.66;4981134;28;20046;-79
2021/07/12 04:46:43;;;;;;;4.28;1.67;;;;;;;24.40;51.88;100516.03;4975548;28;20058;-78
2021/07/12 04:49:27;;;;;;;;;;;;;;;24.48;51.78;100518.31;4980128;28;20041;-78
2021/07/12 04:52:12;;;;;;;4.55;1.52;;;;;;;24.48;52.04;100509.22;4977881;28;20380;-78
2021/07/12 04:54:56;;;;;;;2.60;1.30;;;;;;;24.48;51.69;100509.97;4976793;28;20069;-78
2021/07/12 04:57:41;;;;;;;2.42;1.30;;;;;;;24.50;51.40;100510.38;4974603;28;20137;-78
2021/07/12 05:00:27;;;;;;;3.25;1.35;;;;;;;24.51;51.19;100506.38;4976944;28;20046;-78
2021/07/12 05:03:11;;;;;;;3.05;1.67;;;;;;;24.48;51.07;100496.06;4977263;28;20054;-79
2021/07/12 05:05:57;;;;;;;10.90;2.20;;;;;;;24.51;51.17;100492.47;4979323;28;20049;-79
2021/07/12 05:08:42;;;;;;;2.90;1.38;;;;;;;24.54;50.44;100499.19;4979489;28;20516;-78
2021/07/12 05:11:28;;;;;;;;;;;;;;;24.55;50.48;100496.00;4976978;28;20046;-78
2021/07/12 05:14:13;;;;;;;4.88;1.60;;;;;;;24.60;50.58;100509.44;4979239;28;19918;-78
2021/07/12 05:16:58;;;;;;;3.15;1.45;;;;;;;24.66;50.51;100513.34;4978339;28;20049;-78
2021/07/12 05:19:42;;;;;;;2.97;1.65;;;;;;;24.71;50.59;100515.69;4979166;28;20425;-78
2021/07/12 05:22:28;;;;;;;4.15;1.48;;;;;;;24.77;50.59;100512.44;4986444;28;20054;-79
2021/07/12 05:25:12;;;;;;;4.53;1.17;;;;;;;24.79;50.34;100496.13;4991398;28;20053;-79
2021/07/12 05:27:58;;;;;;;11.23;1.85;;;;;;;24.79;50.97;100505.22;4999581;28;20053;-78
2021/07/12 05:30:43;;;;;;;7.28;2.08;;;;;;;24.82;50.99;100498.84;4969862;28;20050;-78
2021/07/12 05:33:28;;;;;;;5.35;1.80;;;;;;;24.83;51.08;100494.88;4977812;28;20417;-78
2021/07/12 05:36:13;;;;;;;15.32;2.35;;;;;;;24.87;51.02;100487.28;4979386;28;20073;-79
2021/07/12 05:38:57;;;;;;;7.00;2.25;;;;;;;24.89;51.30;100475.75;4977264;28;20436;-79
2021/07/12 05:41:44;;;;;;;5.93;2.33;;;;;;;24.93;51.08;100482.84;4981263;28;20054;-79
2021/07/12 05:44:28;;;;;;;14.82;2.55;;;;;;;24.92;51.13;100458.22;4981724;28;20521;-79
2021/07/12 05:47:13;;;;;;;10.70;2.78;;;;;;;24.99;51.23;100455.34;4979206;28;20065;-79
2021/07/12 05:49:58;;;;;;;14.27;2.50;;;;;;;25.01;50.79;100466.81;4984101;28;20054;-79
2021/07/12 05:52:44;;;;;;;30.25;3.72;;;;;;;25.04;50.60;100477.13;4982707;28;20054;-78
2021/07/12 05:55:29;;;;;;;11.80;2.50;;;;;;;25.00;49.97;100474.38;4979346;28;20050;-78
2021/07/12 05:58:14;;;;;;;43.75;9.70;;;;;;;25.04;51.02;100482.69;4984070;28;20057;-78
2021/07/12 06:00:59;;;;;;;13.40;4.25;;;;;;;25.05;52.78;100487.81;4980887;28;20054;-79
2021/07/12 06:03:44;;;;;;;18.80;3.22;;;;;;;25.03;52.54;100489.47;4976039;28;20061;-78
2021/07/12 06:06:28;;;;;;;14.45;3.00;;;;;;;25.11;51.71;100499.28;4973110;28;20531;-79
2021/07/12 06:09:13;;;;;;;12.35;4.10;;;;;;;25.08;52.83;100500.91;4977195;28;20097;-78
2021/07/12 06:11:58;;;;;;;10.38;2.17;;;;;;;25.11;52.64;100494.50;4981397;28;20055;-78
2021/07/12 06:14:43;;;;;;;;;;;;;;;25.13;52.65;100497.66;4980190;28;20050;-78
2021/07/12 06:17:27;;;;;;;10.23;2.37;;;;;;;25.18;51.99;100492.81;4977641;28;19914;-78
2021/07/12 06:20:17;;;;;;;4.65;2.08;;;;;;;25.20;52.04;100485.63;4979772;28;20281;-78
2021/07/12 06:23:02;;;;;;;9.20;2.85;;;;;;;25.17;52.26;100480.91;4977964;28;20051;-78
2021/07/12 06:25:47;;;;;;;6.20;2.72;;;;;;;25.19;51.95;100467.38;4976785;28;20045;-79
2021/07/12 06:28:32;;;;;;;5.97;2.72;;;;;;;25.22;51.83;100469.28;4981508;28;20053;-78
2021/07/12 06:31:17;;;;;;;;;;;;;;;25.26;51.50;100474.78;4979009;28;20527;-78
2021/07/12 06:34:02;;;;;;;9.20;3.33;;;;;;;25.26;52.10;100464.44;4975336;28;20291;-79
2021/07/12 06:36:46;;;;;;;6.28;2.17;;;;;;;25.31;52.10;100454.84;4978678;28;20058;-78
2021/07/12 06:39:32;;;;;;;8.85;2.03;;;;;;;25.32;52.01;100436.94;4979511;28;20053;-78
2021/07/12 06:42:17;;;;;;;11.40;2.42;;;;;;;25.41;51.34;100432.41;4977024;28;20054;-78
2021/07/12 06:45:03;;;;;;;6.07;2.42;;;;;;;25.53;50.83;100420.66;4979656;28;20049;-77
2021/07/12 06:47:49;;;;;;;8.20;3.45;;;;;;;25.62;51.04;100424.91;4976748;28;20440;-78
2021/07/12 06:50:35;;;;;;;14.63;4.18;;;;;;;25.70;51.63;100432.72;4976802;28;20066;-79
2021/07/12 06:53:20;;;;;;;9.25;3.03;;;;;;;25.73;50.46;100442.22;4976718;28;20050;-79
2021/07/12 06:56:05;;;;;;;11.10;2.92;;;;;;;25.78;50.97;100430.59;4985942;28;20535;-78
2021/07/12 06:58:50;;;;;;;21.58;3.70;;;;;;;25.78;50.88;100419.47;4984421;28;20085;-78
2021/07/12 07:01:35;;;;;;;11.60;3.25;;;;;;;25.83;51.43;100435.69;4979682;28;20543;-78
2021/07/12 07:04:20;;;;;;;12.20;3.42;;;;;;;25.82;51.06;100425.75;4967290;28;20054;-78
2021/07/12 07:07:05;;;;;;;11.50;3.90;;;;;;;25.91;51.11;100423.19;4970859;28;20066;-77
2021/07/12 07:09:50;;;;;;;10.88;3.30;;;;;;;25.94;50.93;100412.00;4968783;28;20053;-79
2021/07/12 07:12:35;;;;;;;12.32;3.17;;;;;;;26.01;50.52;100415.84;4978657;28;20053;-77
2021/07/12 07:15:20;;;;;;;11.45;3.65;;;;;;;26.08;49.92;100419.28;4978335;28;20600;-79
2021/07/12 07:18:05;;;;;;;6.18;2.72;;;;;;;26.12;50.16;100416.41;4981048;28;20058;-78
2021/07/12 07:20:49;;;;;;;5.40;2.30;;;;;;;26.13;49.58;100418.78;4971796;28;20054;-77
2021/07/12 07:23:35;;;;;;;6.20;2.70;;;;;;;26.18;49.50;100418.28;4979205;28;20540;-79
2021/07/12 07:26:19;;;;;;;;;;;;;;;26.25;49.25;100414.59;4981468;28;20054;-80
2021/07/12 07:29:04;;;;;;;4.20;2.20;;;;;;;26.21;49.06;100409.03;4975856;28;19914;-79
2021/07/12 07:31:49;;;;;;;5.35;2.63;;;;;;;26.34;48.93;100418.38;4970288;28;20063;-80
2021/07/12 07:34:34;;;;;;;7.00;3.13;;;;;;;26.39;48.89;100429.03;4980758;28;20050;-79
2021/07/12 07:37:18;;;;;;;;;;;;;;;26.38;49.10;100435.03;4976858;28;20477;-78
2021/07/12 07:40:06;;;;;;;5.70;2.33;;;;;;;26.31;49.41;100440.78;4978390;28;19914;-81
2021/07/12 07:42:51;;;;;;;9.23;2.97;;;;;;;26.29;50.20;100460.72;4993614;28;20050;-80
2021/07/12 07:45:35;;;;;;;;;;;;;;;26.35;50.32;100461.78;4978806;28;20069;-81
2021/07/12 07:48:20;;;;;;;6.20;2.35;;;;;;;26.39;50.22;100459.72;4982143;28;19914;-81
2021/07/12 07:51:05;;;;;;;6.30;2.85;;;;;;;26.37;50.40;100459.34;4975884;28;20058;-81
2021/07/12 07:53:51;;;;;;;14.38;2.92;;;;;;;26.45;50.47;100456.41;4973160;28;20050;-81
2021/07/12 07:56:37;;;;;;;4.90;3.00;;;;;;;26.48;50.18;100458.34;4992721;28;20058;-81
2021/07/12 07:59:22;;;;;;;4.10;3.15;;;;;;;26.55;49.98;100449.84;5001096;28;20438;-81
2021/07/12 08:02:07;;;;;;;10.68;2.90;;;;;;;26.64;50.13;100450.03;4993226;28;20045;-80
2021/07/12 08:04:52;;;;;;;6.85;2.78;;;;;;;26.68;49.71;100453.53;4976765;28;20070;-80
2021/07/12 08:07:37;;;;;;;12.80;4.63;;;;;;;26.75;50.33;100470.13;4974891;28;20057;-81
2021/07/12 08:10:22;;;;;;;7.97;3.13;;;;;;;26.82;49.95;100481.13;4978790;28;20050;-80
2021/07/12 08:13:09;;;;;;;6.15;3.97;;;;;;;26.80;51.01;100481.56;4976471;28;20045;-84
2021/07/12 08:15:54;;;;;;;11.45;3.30;;;;;;;26.78;49.78;100492.34;4966378;28;20046;-79
2021/07/12 08:18:39;;;;;;;8.18;3.40;;;;;;;26.82;50.79;100493.06;4961215;28;20050;-82
2021/07/12 08:21:24;;;;;;;5.82;3.58;;;;;;;26.81;50.44;100497.09;4973179;28;20046;-81
2021/07/12 08:24:09;;;;;;;11.70;4.70;;;;;;;27.59;49.56;100494.56;4974480;28;20070;-80
2021/07/12 08:26:54;;;;;;;11.15;3.42;;;;;;;27.85;48.14;100484.31;4962984;28;20713;-76
2021/07/12 08:29:39;;;;;;;9.88;4.10;;;;;;;28.09;46.87;100482.88;4959578;28;20050;-77
2021/07/12 08:32:23;;;;;;;;;;;;;;;29.36;45.05;100483.97;4965166;28;20054;-78
2021/07/12 08:35:09;;;;;;;21.50;4.00;;;;;;;30.96;42.23;100491.13;4970458;28;19914;-75
2021/07/12 08:37:54;;;;;;;8.63;3.97;;;;;;;31.14;40.34;100500.94;4976406;28;20061;-75
2021/07/12 08:40:39;;;;;;;10.15;3.67;;;;;;;30.41;41.83;100498.41;4975191;28;20069;-77
2021/07/12 08:43:24;;;;;;;6.07;3.67;;;;;;;30.66;41.69;100499.53;4978134;28;20042;-80
2021/07/12 08:46:10;;;;;;;7.72;3.15;;;;;;;30.03;43.05;100498.56;4980725;28;20050;-80
2021/07/12 08:48:55;;;;;;;6.22;3.38;;;;;;;29.55;44.41;100491.38;4979722;28;20520;-78
2021/07/12 08:51:41;;;;;;;3.55;3.00;;;;;;;29.24;45.12;100493.16;4961164;28;20058;-79
2021/07/12 08:54:26;;;;;;;10.45;3.50;;;;;;;28.98;45.23;100481.16;4964424;28;20528;-79
2021/07/12 08:57:11;;;;;;;15.32;4.32;;;;;;;28.78;45.38;100478.56;4958669;28;20062;-80
2021/07/12 08:59:57;;;;;;;5.43;3.80;;;;;;;28.66;46.42;100472.91;4961629;28;20054;-79
2021/07/12 09:02:41;;;;;;;14.23;3.28;;;;;;;28.58;46.11;100477.16;4980107;28;20058;-78
2021/07/12 09:05:27;;;;;;;5.00;3.33;;;;;;;28.53;46.40;100478.47;4978207;28;20053;-79
2021/07/12 09:08:12;;;;;;;6.68;3.70;;;;;;;28.45;46.73;100479.91;4977874;28;20058;-80
2021/07/12 09:11:17;;;;;;;6.40;3.38;;;;;;;28.44;46.76;100476.31;4982092;28;20049;-79
2021/07/12 09:14:04;;;;;;;9.45;3.35;;;;;;;28.41;46.26;100470.81;4977037;28;20054;-79
2021/07/12 09:16:55;;;;;;;6.25;2.80;;;;;;;28.38;45.83;100469.72;4975807;28;20409;-80
2021/07/12 09:19:40;;;;;;;3.10;2.40;;;;;;;28.42;45.11;100472.41;4978421;28;20053;-77
2021/07/12 09:22:41;;;;;;;5.13;2.50;;;;;;;28.40;44.59;100470.03;5068753;28;20901;-68
2021/07/12 09:25:30;;;;;;;4.90;2.38;;;;;;;28.39;44.21;100482.44;5029360;28;20048;-68
2021/07/12 09:28:15;;;;;;;5.43;2.53;;;;;;;28.38;44.25;100480.91;5051295;28;20048;-68
2021/07/12 09:31:00;;;;;;;5.32;2.47;;;;;;;28.40;44.54;100478.44;5059611;28;20043;-69
2021/07/12 09:33:49;;;;;;;52.92;11.63;;;;;;;28.41;44.29;100477.22;5073641;28;20047;-69
2021/07/12 09:36:35;;;;;;;6.75;3.40;;;;;;;28.45;43.77;100482.69;5045455;28;20044;-68
2021/07/12 09:39:29;;;;;;;18.35;5.45;;;;;;;28.44;44.04;100481.91;5029663;28;20052;-68
2021/07/12 09:42:21;;;;;;;10.40;3.25;;;;;;;28.50;44.04;100484.94;5043760;28;20049;-66
2021/07/12 09:45:09;;;;;;;10.45;3.28;;;;;;;28.54;44.78;100480.06;5031676;28;20366;-68
2021/07/12 09:47:53;;;;;;;8.38;3.45;;;;;;;28.55;44.46;100481.59;5041210;28;20405;-69
2021/07/12 09:50:48;;;;;;;11.45;3.63;;;;;;;28.58;44.33;100475.13;5049122;28;20083;-67
2021/07/12 09:53:35;;;;;;;7.53;3.03;;;;;;;28.57;44.11;100473.56;5041437;28;20052;-69
2021/07/12 09:56:26;;;;;;;12.52;3.63;;;;;;;28.57;44.60;100479.16;5048123;28;20045;-68
2021/07/12 09:59:14;;;;;;;7.03;2.53;;;;;;;28.60;44.06;100478.25;5033723;28;20064;-69
2021/07/12 10:01:59;;;;;;;4.03;1.85;;;;;;;28.67;43.32;100489.25;5043718;28;20040;-69
2021/07/12 10:04:45;;;;;;;5.72;2.50;;;;;;;28.70;43.28;100482.75;5034069;28;20053;-69
2021/07/12 10:07:30;;;;;;;6.95;2.42;;;;;;;28.71;43.24;100492.72;5031574;28;20064;-69
2021/07/12 10:10:16;;;;;;;4.55;2.00;;;;;;;28.78;42.99;100486.19;5033910;28;20056;-67
2021/07/12 10:13:01;;;;;;;2.78;1.85;;;;;;;28.84;43.27;100492.81;5053102;28;20048;-68
2021/07/12 10:15:49;;;;;;;3.83;2.40;;;;;;;28.88;43.34;100488.66;5031211;28;20049;-69
2021/07/12 10:18:35;;;;;;;3.45;2.55;;;;;;;28.99;42.09;100493.16;5029412;28;20056;-67
2021/07/12 10:21:20;;;;;;;3.25;1.88;;;;;;;29.07;41.70;100492.47;5038091;28;20417;-68
2021/07/12 10:24:07;;;;;;;4.35;2.45;;;;;;;29.09;41.51;100492.03;5044112;28;20048;-67
2021/07/12 10:26:59;;;;;;;6.78;2.30;;;;;;;29.14;41.41;100488.69;5050703;28;20043;-68
2021/07/12 10:29:43;;;;;;;3.05;1.73;;;;;;;29.20;41.11;100496.09;5072539;28;20040;-68
2021/07/12 10:32:32;;;;;;;3.10;2.20;;;;;;;29.23;41.32;100494.38;5065756;28;20072;-69
2021/07/12 10:35:44;;;;;;;11.88;2.20;;;;;;;29.24;41.22;100499.53;5030663;28;20532;-69
2021/07/12 10:38:36;;;;;;;7.63;2.83;;;;;;;29.30;41.11;100499.78;5028537;28;20417;-68
2021/07/12 10:41:22;;;;;;;7.20;2.53;;;;;;;29.46;40.95;100505.25;5030219;28;20664;-67
2021/07/12 10:44:07;;;;;;;3.30;2.13;;;;;;;29.47;41.39;100500.44;5019734;28;20052;-68
2021/07/12 10:46:54;;;;;;;2.67;1.70;;;;;;;29.50;40.63;100499.56;5017999;28;20072;-68
2021/07/12 10:49:39;;;;;;;2.35;1.85;;;;;;;29.49;40.80;100493.16;5018087;28;20061;-68
2021/07/12 10:52:44;;;;;;;3.35;2.85;;;;;;;29.52;40.75;100489.47;5014052;28;20501;-69
2021/07/12 10:55:34;;;;;;;6.63;2.75;;;;;;;29.54;41.45;100484.19;5025628;28;20053;-68
2021/07/12 10:58:19;;;;;;;6.50;2.50;;;;;;;29.59;41.20;100478.03;5029172;28;20512;-69
2021/07/12 11:01:06;;;;;;;4.35;2.35;;;;;;;29.69;40.82;100484.50;5022427;28;20053;-68
2021/07/12 11:03:51;;;;;;;4.78;2.55;;;;;;;29.70;40.72;100475.66;5035382;28;20056;-68
2021/07/12 11:06:53;;;;;;;5.40;2.30;;;;;;;29.82;41.21;100476.06;5018885;28;20053;-67
2021/07/12 11:09:52;;;;;;;7.15;2.78;;;;;;;29.99;40.18;100472.66;5019400;28;20505;-68
2021/07/12 11:12:40;;;;;;;2.95;1.80;;;;;;;29.97;40.40;100458.31;5017162;28;20053;-67
2021/07/12 11:15:31;;;;;;;3.90;1.95;;;;;;;29.97;40.20;100444.28;5026922;28;20488;-68
2021/07/12 11:18:16;;;;;;;4.97;2.20;;;;;;;29.97;40.15;100443.53;5036233;28;20413;-67
2021/07/12 11:21:04;;;;;;;4.47;2.33;;;;;;;30.04;40.39;100449.66;5025458;28;20049;-69
2021/07/12 11:23:50;;;;;;;3.17;2.00;;;;;;;30.03;40.51;100444.50;5024160;28;20053;-69
2021/07/12 11:26:38;;;;;;;8.07;2.65;;;;;;;30.02;40.39;100452.13;5024499;28;20048;-69
2021/07/12 11:29:28;;;;;;;2.28;2.08;;;;;;;30.09;40.67;100448.28;5031960;28;20052;-68
2021/07/12 11:32:14;;;;;;;5.47;2.50;;;;;;;30.14;40.65;100447.69;5041574;28;20408;-69
2021/07/12 11:34:59;;;;;;;6.70;2.58;;;;;;;30.21;40.33;100443.84;5035357;28;20052;-69
2021/07/12 11:37:44;;;;;;;6.80;2.60;;;;;;;30.20;40.42;100442.28;5044472;28;20044;-68
2021/07/12 11:40:30;;;;;;;6.70;2.72;;;;;;;30.20;40.44;100431.84;5052394;28;20051;-68
2021/07/12 11:43:26;;;;;;;3.15;2.42;;;;;;;30.29;40.45;100429.09;5037308;28;20045;-69
2021/07/12 11:46:11;;;;;;;4.60;2.50;;;;;;;30.31;40.70;100428.66;5041823;28;20051;-68
2021/07/12 11:49:13;;;;;;;2.92;2.35;;;;;;;30.31;40.39;100423.81;5032095;28;20068;-70
2021/07/12 11:51:59;;;;;;;3.22;2.38;;;;;;;30.28;40.45;100418.31;5049381;28;20032;-69
2021/07/12 11:54:45;;;;;;;2.20;2.00;;;;;;;30.31;40.35;100406.22;5019025;28;20060;-69
2021/07/12 11:57:29;;;;;;;5.40;2.53;;;;;;;30.32;40.14;100416.19;5024620;28;20052;-69
2021/07/12 12:00:19;;;;;;;4.35;2.63;;;;;;;30.41;39.63;100411.41;5025980;28;20060;-69
2021/07/12 12:03:06;;;;;;;3.70;2.05;;;;;;;30.47;39.76;100406.81;5024626;28;20044;-69
2021/07/12 12:05:51;;;;;;;5.45;2.40;;;;;;;30.41;39.86;100405.81;5031104;28;20067;-69
2021/07/12 12:08:36;;;;;;;4.55;2.47;;;;;;;30.46;39.84;100419.28;5037223;28;20048;-70
2021/07/12 12:11:28;;;;;;;3.53;2.88;;;;;;;30.46;40.11;100422.09;5014528;28;20064;-70
2021/07/12 12:14:21;;;;;;;7.30;2.80;;;;;;;30.50;40.38;100419.91;5032885;28;20048;-70
2021/07/12 12:17:07;;;;;;;2.40;2.15;;;;;;;30.49;40.33;100412.72;5025624;28;20052;-69
2021/07/12 12:20:21;;;;;;;5.47;2.75;;;;;;;30.49;40.14;100412.72;5027238;28;20048;-68
2021/07/12 12:23:08;;;;;;;4.57;2.17;;;;;;;30.50;40.10;100405.09;5024810;28;20109;-69
2021/07/12 12:25:53;;;;;;;5.22;2.67;;;;;;;30.51;40.08;100395.44;5014172;28;20056;-67
2021/07/12 12:28:58;;;;;;;3.78;2.60;;;;;;;30.52;40.34;100391.41;5012747;28;20057;-69
2021/07/12 12:31:43;;;;;;;7.20;3.53;;;;;;;30.58;40.10;100395.94;5015931;28;20093;-69
2021/07/12 12:34:32;;;;;;;4.82;2.72;;;;;;;30.66;39.64;100404.09;5014806;28;20041;-69
2021/07/12 12:37:18;;;;;;;4.53;2.30;;;;;;;30.67;39.20;100400.84;5025711;28;20048;-68
2021/07/12 12:40:26;;;;;;;5.32;2.28;;;;;;;30.66;39.59;100404.88;5020537;28;20064;-68
2021/07/12 12:43:17;;;;;;;15.15;2.95;;;;;;;30.82;40.11;100403.84;5025525;28;20044;-69
2021/07/12 12:46:05;;;;;;;4.32;2.08;;;;;;;30.82;39.56;100409.47;5030181;28;20056;-69
2021/07/12 12:48:50;;;;;;;4.82;2.20;;;;;;;30.85;39.43;100411.34;5032687;28;20520;-69
2021/07/12 12:51:35;;;;;;;6.80;2.22;;;;;;;30.89;38.62;100406.38;5017526;28;20049;-68
2021/07/12 12:54:21;;;;;;;3.47;2.08;;;;;;;30.96;38.63;100406.88;5014737;28;20056;-68
2021/07/12 12:57:07;;;;;;;7.43;3.25;;;;;;;31.05;38.56;100408.97;5014919;28;20049;-69
2021/07/12 13:00:07;;;;;;;11.52;2.10;;;;;;;31.02;38.78;100404.28;5013419;28;20072;-69
2021/07/12 13:02:53;;;;;;;2.75;2.30;;;;;;;30.99;38.43;100391.09;5016223;28;20045;-69